Time;durP1;ratioP1;P1;durP2;ratioP2;P2;SDS_P1;SDS_P2;PMS_P1;PMS_P2;Temp;Humidity;BMP_temperature;BMP_pressure;BME280_temperature;BME280_humidity;BME280_pressure;Samples;Min_cycle;Max_cycle;Signal;HPM_P1;HPM_P2
2022/05/25 00:01:34;;;;;;;;;;;;;;;;;;5065352;28;19908;-47
2022/05/25 00:04:00;;;;;;;;;;;;;;;;;;5080543;28;19912;-44
2022/05/25 00:06:26;;;;;;;;;;;;;;;;;;5066988;28;19999;-43
2022/05/25 00:08:52;;;;;;;;;;;;;;;;;;5066666;28;20419;-47
2022/05/25 00:11:18;;;;;;;;;;;;;;;;;;5065651;28;20027;-44
2022/05/25 00:13:44;;;;;;;;;;;;;;;;;;5065666;28;19931;-43
2022/05/25 00:16:10;;;;;;;;;;;;;;;;;;5065197;28;19943;-45
2022/05/25 00:18:36;;;;;;;;;;;;;;;;;;5066790;28;19912;-44
2022/05/25 00:21:02;;;;;;;;;;;;;;;;;;5066321;28;20551;-44
2022/05/25 00:23:28;;;;;;;;;;;;;;;;;;5066483;28;19904;-43
2022/05/25 00:25:54;;;;;;;;;;;;;;;;;;5066510;28;19911;-44
2022/05/25 00:28:20;;;;;;;;;;;;;;;;;;5065574;28;19914;-43
2022/05/25 00:30:46;;;;;;;;;;;;;;;;;;5065359;28;19912;-46
2022/05/25 00:33:12;;;;;;;;;;;;;;;;;;5065692;28;19920;-47
2022/05/25 00:35:38;;;;;;;;;;;;;;;;;;5066699;28;19904;-43
2022/05/25 00:38:04;;;;;;;;;;;;;;;;;;5066831;28;19908;-44
2022/05/25 00:40:30;;;;;;;;;;;;;;;;;;5066540;28;19995;-44
2022/05/25 00:42:56;;;;;;;;;;;;;;;;;;5065366;28;19913;-46
2022/05/25 00:45:21;;;;;;;;;;;;;;;;;;5066431;28;19935;-44
2022/05/25 00:47:47;;;;;;;;;;;;;;;;;;5065616;28;19908;-44
2022/05/25 00:50:13;;;;;;;;;;;;;;;;;;5070148;28;19986;-45
2022/05/25 00:52:40;;;;;;;;;;;;;;;;;;5069107;28;19912;-44
2022/05/25 00:55:06;;;;;;;;;;;;;;;;;;5070295;28;19917;-44
2022/05/25 00:57:32;;;;;;;;;;;;;;;;;;5070398;28;19908;-43
2022/05/25 00:59:58;;;;;;;;;;;;;;;;;;5069029;28;19908;-43
2022/05/25 01:02:24;;;;;;;;;;;;;;;;;;5068862;28;19908;-45
2022/05/25 01:04:50;;;;;;;;;;;;;;;;;;5069579;28;19908;-44
2022/05/25 01:07:16;;;;;;;;;;;;;;;;;;5069167;28;20042;-46
2022/05/25 01:09:42;;;;;;;;;;;;;;;;;;5069521;28;19999;-44
2022/05/25 01:12:08;;;;;;;;;;;;;;;;;;5068134;28;20302;-44
2022/05/25 01:14:34;;;;;;;;;;;;;;;;;;5069617;28;19926;-44
2022/05/25 01:17:01;;;;;;;;;;;;;;;;;;5068475;28;19913;-45
2022/05/25 01:19:27;;;;;;;;;;;;;;;;;;5069349;28;20422;-44
2022/05/25 01:21:52;;;;;;;;;;;;;;;;;;5068310;28;19912;-42
2022/05/25 01:24:18;;;;;;;;;;;;;;;;;;5069832;28;19905;-44
2022/05/25 01:26:44;;;;;;;;;;;;;;;;;;5069502;28;19911;-45
2022/05/25 01:29:10;;;;;;;;;;;;;;;;;;5068258;28;19909;-43
2022/05/25 01:31:37;;;;;;;;;;;;;;;;;;5068100;28;19951;-43
2022/05/25 01:34:03;;;;;;;;;;;;;;;;;;5068795;28;19915;-44
2022/05/25 01:36:29;;;;;;;;;;;;;;;;;;5069365;28;19908;-44
2022/05/25 01:38:55;;;;;;;;;;;;;;;;;;5068927;28;19905;-44
2022/05/25 01:41:22;;;;;;;;;;;;;;;;;;5066984;28;19962;-42
2022/05/25 01:43:48;;;;;;;;;;;;;;;;;;5068280;28;19909;-43
2022/05/25 01:46:14;;;;;;;;;;;;;;;;;;5068708;28;19951;-45
2022/05/25 01:48:39;;;;;;;;;;;;;;;;;;5067764;28;19909;-44
2022/05/25 01:51:05;;;;;;;;;;;;;;;;;;5066709;28;19909;-43
2022/05/25 01:53:31;;;;;;;;;;;;;;;;;;5067960;28;19999;-43
2022/05/25 01:55:57;;;;;;;;;;;;;;;;;;5067303;28;19962;-43
2022/05/25 01:58:23;;;;;;;;;;;;;;;;;;5065815;28;19912;-44
2022/05/25 02:00:49;;;;;;;;;;;;;;;;;;5067396;28;19915;-44
2022/05/25 02:05:59;;;;;;;;;;;;;;;;;;5067322;28;20330;-44
2022/05/25 02:08:26;;;;;;;;;;;;;;;;;;5067661;28;19904;-43
2022/05/25 02:10:52;;;;;;;;;;;;;;;;;;5066876;28;19919;-43
2022/05/25 02:13:19;;;;;;;;;;;;;;;;;;5066996;28;19908;-44
2022/05/25 02:15:46;;;;;;;;;;;;;;;;;;5067747;28;19935;-43
2022/05/25 02:18:13;;;;;;;;;;;;;;;;;;5067467;28;20287;-44
2022/05/25 02:20:39;;;;;;;;;;;;;;;;;;5067301;28;19905;-43
2022/05/25 02:23:06;;;;;;;;;;;;;;;;;;5066346;28;19950;-45
2022/05/25 02:25:33;;;;;;;;;;;;;;;;;;5067493;28;19948;-43
2022/05/25 02:27:58;;;;;;;;;;;;;;;;;;5067087;28;19907;-46
2022/05/25 02:30:24;;;;;;;;;;;;;;;;;;5066361;28;20296;-43
2022/05/25 02:32:50;;;;;;;;;;;;;;;;;;5064723;28;20008;-43
2022/05/25 02:35:16;;;;;;;;;;;;;;;;;;5067570;28;20287;-44
2022/05/25 02:37:43;;;;;;;;;;;;;;;;;;5067093;28;19916;-44
2022/05/25 02:40:09;;;;;;;;;;;;;;;;;;5066919;28;19940;-43
2022/05/25 02:42:35;;;;;;;;;;;;;;;;;;5065951;28;19958;-44
2022/05/25 02:45:02;;;;;;;;;;;;;;;;;;5066459;28;20371;-43
2022/05/25 02:47:28;;;;;;;;;;;;;;;;;;5066771;28;19931;-43
2022/05/25 02:49:55;;;;;;;;;;;;;;;;;;5066525;28;19909;-44
2022/05/25 02:52:21;;;;;;;;;;;;;;;;;;5065719;28;19966;-47
2022/05/25 02:54:47;;;;;;;;;;;;;;;;;;5066883;28;19970;-43
2022/05/25 02:57:13;;;;;;;;;;;;;;;;;;5067511;28;20328;-43
2022/05/25 02:59:39;;;;;;;;;;;;;;;;;;5066098;28;19949;-43
2022/05/25 03:02:06;;;;;;;;;;;;;;;;;;5064648;28;19920;-44
2022/05/25 03:04:32;;;;;;;;;;;;;;;;;;5066517;28;19954;-43
2022/05/25 03:06:58;;;;;;;;;;;;;;;;;;5066163;28;19908;-43
2022/05/25 03:09:24;;;;;;;;;;;;;;;;;;5066525;28;19904;-43
2022/05/25 03:11:51;;;;;;;;;;;;;;;;;;5064603;28;19912;-43
2022/05/25 03:14:18;;;;;;;;;;;;;;;;;;5066584;28;20375;-43
2022/05/25 03:16:44;;;;;;;;;;;;;;;;;;5066279;28;19943;-43
2022/05/25 03:19:10;;;;;;;;;;;;;;;;;;5066328;28;20452;-43
2022/05/25 03:21:36;;;;;;;;;;;;;;;;;;5065400;28;19908;-43
2022/05/25 03:24:02;;;;;;;;;;;;;;;;;;5065784;28;20571;-43
2022/05/25 03:26:28;;;;;;;;;;;;;;;;;;5066029;28;19904;-42
2022/05/25 03:28:54;;;;;;;;;;;;;;;;;;5065754;28;19905;-43
2022/05/25 03:31:20;;;;;;;;;;;;;;;;;;5064534;28;19920;-44
2022/05/25 03:33:46;;;;;;;;;;;;;;;;;;5066206;28;20386;-43
2022/05/25 03:36:12;;;;;;;;;;;;;;;;;;5065750;28;20148;-43
2022/05/25 03:38:39;;;;;;;;;;;;;;;;;;5064696;28;19951;-43
2022/05/25 03:41:05;;;;;;;;;;;;;;;;;;5065688;28;19951;-43
2022/05/25 03:43:31;;;;;;;;;;;;;;;;;;5066016;28;19908;-44
2022/05/25 03:45:58;;;;;;;;;;;;;;;;;;5063982;28;19931;-44
2022/05/25 03:48:25;;;;;;;;;;;;;;;;;;5065788;28;20426;-44
2022/05/25 03:50:51;;;;;;;;;;;;;;;;;;5065448;28;19919;-46
2022/05/25 03:53:17;;;;;;;;;;;;;;;;;;5065765;28;20318;-44
2022/05/25 03:55:43;;;;;;;;;;;;;;;;;;5064464;28;19917;-44
2022/05/25 03:58:09;;;;;;;;;;;;;;;;;;5064325;28;19919;-44
2022/05/25 04:00:35;;;;;;;;;;;;;;;;;;5065423;28;19995;-43
2022/05/25 04:03:02;;;;;;;;;;;;;;;;;;5065401;28;19909;-43
2022/05/25 04:05:28;;;;;;;;;;;;;;;;;;5065457;28;19908;-43
2022/05/25 04:07:58;;;;;;;;;;;;;;;;;;5064458;28;20401;-43
2022/05/25 04:10:24;;;;;;;;;;;;;;;;;;5064279;28;19917;-43
2022/05/25 04:12:50;;;;;;;;;;;;;;;;;;5064817;28;19931;-44
2022/05/25 04:15:17;;;;;;;;;;;;;;;;;;5066052;28;19905;-45
2022/05/25 04:17:42;;;;;;;;;;;;;;;;;;5064995;28;19908;-44
2022/05/25 04:20:08;;;;;;;;;;;;;;;;;;5064693;28;19931;-43
2022/05/25 04:22:35;;;;;;;;;;;;;;;;;;5064454;28;19912;-43
2022/05/25 04:25:02;;;;;;;;;;;;;;;;;;5064012;28;19920;-43
2022/05/25 04:27:28;;;;;;;;;;;;;;;;;;5065247;28;20402;-43
2022/05/25 04:29:54;;;;;;;;;;;;;;;;;;5065155;28;19908;-44
2022/05/25 04:32:20;;;;;;;;;;;;;;;;;;5064742;28;19915;-44
2022/05/25 04:34:46;;;;;;;;;;;;;;;;;;5063681;28;19908;-43
2022/05/25 04:39:56;;;;;;;;;;;;;;;;;;5059755;28;20001;-43
2022/05/25 04:42:28;;;;;;;;;;;;;;;;;;5065047;28;19958;-42
2022/05/25 04:44:59;;;;;;;;;;;;;;;;;;5063784;28;20415;-44
2022/05/25 04:47:25;;;;;;;;;;;;;;;;;;5065377;28;19909;-44
2022/05/25 04:49:51;;;;;;;;;;;;;;;;;;5064692;28;20156;-44
2022/05/25 04:52:17;;;;;;;;;;;;;;;;;;5064407;28;19909;-43
2022/05/25 04:54:43;;;;;;;;;;;;;;;;;;5063754;28;19927;-43
2022/05/25 04:57:21;;;;;;;;;;;;;;;;;;5065115;28;19908;-43
2022/05/25 04:59:47;;;;;;;;;;;;;;;;;;5065431;28;19904;-43
2022/05/25 05:02:13;;;;;;;;;;;;;;;;;;5064152;28;19920;-43
2022/05/25 05:04:39;;;;;;;;;;;;;;;;;;5063810;28;19919;-45
2022/05/25 05:07:05;;;;;;;;;;;;;;;;;;5064931;28;19991;-43
2022/05/25 05:09:32;;;;;;;;;;;;;;;;;;5064884;28;19995;-43
2022/05/25 05:11:58;;;;;;;;;;;;;;;;;;5064429;28;20086;-42
2022/05/25 05:14:24;;;;;;;;;;;;;;;;;;5063657;28;20291;-43
2022/05/25 05:16:54;;;;;;;;;;;;;;;;;;5063924;28;20390;-44
2022/05/25 05:19:20;;;;;;;;;;;;;;;;;;5064637;28;19909;-44
2022/05/25 05:21:46;;;;;;;;;;;;;;;;;;5065099;28;19904;-44
2022/05/25 05:24:12;;;;;;;;;;;;;;;;;;5063745;28;19912;-44
2022/05/25 05:26:39;;;;;;;;;;;;;;;;;;5064828;28;20316;-43
2022/05/25 05:29:05;;;;;;;;;;;;;;;;;;5064503;28;19987;-43
2022/05/25 05:31:30;;;;;;;;;;;;;;;;;;5064468;28;19999;-43
2022/05/25 05:33:57;;;;;;;;;;;;;;;;;;5063103;28;19916;-43
2022/05/25 05:36:23;;;;;;;;;;;;;;;;;;5067138;28;20516;-43
2022/05/25 05:38:49;;;;;;;;;;;;;;;;;;5067964;28;19912;-44
2022/05/25 05:41:15;;;;;;;;;;;;;;;;;;5069133;28;19955;-43
2022/05/25 05:43:41;;;;;;;;;;;;;;;;;;5067607;28;19912;-43
2022/05/25 05:46:07;;;;;;;;;;;;;;;;;;5069139;28;19912;-45
2022/05/25 05:48:33;;;;;;;;;;;;;;;;;;5067958;28;19912;-44
2022/05/25 05:50:59;;;;;;;;;;;;;;;;;;5068848;28;19916;-43
2022/05/25 05:53:26;;;;;;;;;;;;;;;;;;5068925;28;19912;-43
2022/05/25 05:55:52;;;;;;;;;;;;;;;;;;5068924;28;19942;-43
2022/05/25 05:58:18;;;;;;;;;;;;;;;;;;5068957;28;20389;-43
2022/05/25 06:00:44;;;;;;;;;;;;;;;;;;5067469;28;20035;-43
2022/05/25 06:03:10;;;;;;;;;;;;;;;;;;5068902;28;20003;-44
2022/05/25 06:05:36;;;;;;;;;;;;;;;;;;5069104;28;20366;-43
2022/05/25 06:08:02;;;;;;;;;;;;;;;;;;5068817;28;19904;-43
2022/05/25 06:10:27;;;;;;;;;;;;;;;;;;5069069;28;19981;-43
2022/05/25 06:12:53;;;;;;;;;;;;;;;;;;5067571;28;20003;-44
2022/05/25 06:20:48;;;;;;;;;;;;;;;;;;5067406;28;19961;-43
2022/05/25 06:23:14;;;;;;;;;;;;;;;;;;5067054;28;19916;-44
2022/05/25 06:25:40;;;;;;;;;;;;;;;;;;5064862;28;19912;-42
2022/05/25 06:28:06;;;;;;;;;;;;;;;;;;5066436;28;19995;-46
2022/05/25 06:30:32;;;;;;;;;;;;;;;;;;5067763;28;19919;-44
2022/05/25 06:32:58;;;;;;;;;;;;;;;;;;5068416;28;19904;-46
2022/05/25 06:35:24;;;;;;;;;;;;;;;;;;5068383;28;19912;-45
2022/05/25 06:37:50;;;;;;;;;;;;;;;;;;5067511;28;20026;-44
2022/05/25 06:40:16;;;;;;;;;;;;;;;;;;5068541;28;19908;-47
2022/05/25 06:42:42;;;;;;;;;;;;;;;;;;5068383;28;19904;-43
2022/05/25 06:45:08;;;;;;;;;;;;;;;;;;5067819;28;19908;-43
2022/05/25 06:47:34;;;;;;;;;;;;;;;;;;5067874;28;19904;-43
2022/05/25 06:50:00;;;;;;;;;;;;;;;;;;5066991;28;19916;-43
2022/05/25 06:52:26;;;;;;;;;;;;;;;;;;5068175;28;20515;-43
2022/05/25 06:54:53;;;;;;;;;;;;;;;;;;5067838;28;20135;-46
2022/05/25 06:57:19;;;;;;;;;;;;;;;;;;5064398;28;20599;-43
2022/05/25 06:59:46;;;;;;;;;;;;;;;;;;5066190;28;19915;-46
2022/05/25 07:02:12;;;;;;;;;;;;;;;;;;5067315;28;19916;-44
2022/05/25 07:04:38;;;;;;;;;;;;;;;;;;5067875;28;19905;-45
2022/05/25 07:07:04;;;;;;;;;;;;;;;;;;5067640;28;19904;-43
2022/05/25 07:09:31;;;;;;;;;;;;;;;;;;5067883;28;19912;-43
2022/05/25 07:11:58;;;;;;;;;;;;;;;;;;5065721;28;19932;-44
2022/05/25 07:14:24;;;;;;;;;;;;;;;;;;5066267;28;19915;-43
2022/05/25 07:16:51;;;;;;;;;;;;;;;;;;5064454;28;19912;-43
2022/05/25 07:19:17;;;;;;;;;;;;;;;;;;5068227;28;19911;-44
2022/05/25 07:21:43;;;;;;;;;;;;;;;;;;5067242;28;19908;-45
2022/05/25 07:24:10;;;;;;;;;;;;;;;;;;5062072;28;19912;-43
2022/05/25 07:26:36;;;;;;;;;;;;;;;;;;5066784;28;19908;-43
2022/05/25 07:29:02;;;;;;;;;;;;;;;;;;5056849;28;19908;-45
2022/05/25 07:31:28;;;;;;;;;;;;;;;;;;5066764;28;19913;-44
2022/05/25 07:33:54;;;;;;;;;;;;;;;;;;5067952;28;20004;-44
2022/05/25 07:36:20;;;;;;;;;;;;;;;;;;5067550;28;19909;-45
2022/05/25 07:38:46;;;;;;;;;;;;;;;;;;5078988;28;19936;-44
2022/05/25 07:41:12;;;;;;;;;;;;;;;;;;5061117;28;20404;-45
2022/05/25 07:43:38;;;;;;;;;;;;;;;;;;5065171;28;19995;-43
2022/05/25 07:46:04;;;;;;;;;;;;;;;;;;5067746;28;19937;-43
2022/05/25 07:48:30;;;;;;;;;;;;;;;;;;5067997;28;19916;-43
2022/05/25 07:50:56;;;;;;;;;;;;;;;;;;5067622;28;19909;-42
2022/05/25 07:56:06;;;;;;;;;;;;;;;;;;5067997;28;19964;-44
2022/05/25 07:58:32;;;;;;;;;;;;;;;;;;5067616;28;19948;-43
2022/05/25 08:00:58;;;;;;;;;;;;;;;;;;5066795;28;19950;-44
2022/05/25 08:06:10;;;;;;;;;;;;;;;;;;5048634;28;19920;-46
2022/05/25 08:08:36;;;;;;;;;;;;;;;;;;5066365;28;19908;-44
2022/05/25 08:11:02;;;;;;;;;;;;;;;;;;5066205;28;19954;-45
2022/05/25 08:13:30;;;;;;;;;;;;;;;;;;5066320;28;19904;-47
2022/05/25 08:15:57;;;;;;;;;;;;;;;;;;5066215;28;19904;-46
2022/05/25 08:18:23;;;;;;;;;;;;;;;;;;5066319;28;20294;-45
2022/05/25 08:20:50;;;;;;;;;;;;;;;;;;5066074;28;19911;-43
2022/05/25 08:23:16;;;;;;;;;;;;;;;;;;5066076;28;19957;-43
2022/05/25 08:25:43;;;;;;;;;;;;;;;;;;5064959;28;20014;-47
2022/05/25 08:28:08;;;;;;;;;;;;;;;;;;5066198;28;19931;-45
2022/05/25 08:30:34;;;;;;;;;;;;;;;;;;5066084;28;20366;-44
2022/05/25 08:33:00;;;;;;;;;;;;;;;;;;5066169;28;19908;-44
2022/05/25 08:35:27;;;;;;;;;;;;;;;;;;5066238;28;19904;-44
2022/05/25 08:37:53;;;;;;;;;;;;;;;;;;5065624;28;19991;-45
2022/05/25 08:40:20;;;;;;;;;;;;;;;;;;5061326;28;20003;-46
2022/05/25 08:42:46;;;;;;;;;;;;;;;;;;5046339;28;19915;-44
2022/05/25 08:45:11;;;;;;;;;;;;;;;;;;5057653;28;20334;-43
2022/05/25 08:47:39;;;;;;;;;;;;;;;;;;5051217;28;20386;-44
2022/05/25 08:50:05;;;;;;;;;;;;;;;;;;5046081;28;19916;-45
2022/05/25 08:52:31;;;;;;;;;;;;;;;;;;5045922;28;19908;-44
2022/05/25 08:54:56;;;;;;;;;;;;;;;;;;5045663;28;19919;-43
2022/05/25 08:57:22;;;;;;;;;;;;;;;;;;5051676;28;19962;-43
2022/05/25 08:59:48;;;;;;;;;;;;;;;;;;5065492;28;19904;-44
2022/05/25 09:02:14;;;;;;;;;;;;;;;;;;5065817;28;19954;-45
2022/05/25 09:04:40;;;;;;;;;;;;;;;;;;5064076;28;19908;-44
2022/05/25 09:07:06;;;;;;;;;;;;;;;;;;5053334;28;20337;-43
2022/05/25 09:09:33;;;;;;;;;;;;;;;;;;5079960;28;19908;-44
2022/05/25 09:11:59;;;;;;;;;;;;;;;;;;5069280;28;19908;-43
2022/05/25 09:14:25;;;;;;;;;;;;;;;;;;5068988;28;20415;-43
2022/05/25 09:16:51;;;;;;;;;;;;;;;;;;5069634;28;19915;-43
2022/05/25 09:19:17;;;;;;;;;;;;;;;;;;5070356;28;19905;-44
2022/05/25 09:21:43;;;;;;;;;;;;;;;;;;5085435;28;20311;-46
2022/05/25 09:24:10;;;;;;;;;;;;;;;;;;5068715;28;19912;-43
2022/05/25 09:26:36;;;;;;;;;;;;;;;;;;5067995;28;19919;-43
2022/05/25 09:29:02;;;;;;;;;;;;;;;;;;5068637;28;20082;-45
2022/05/25 09:31:31;;;;;;;;;;;;;;;;;;5069613;28;19908;-43
2022/05/25 09:33:58;;;;;;;;;;;;;;;;;;5068856;28;20014;-44
2022/05/25 09:36:25;;;;;;;;;;;;;;;;;;5063410;28;19916;-43
2022/05/25 09:38:53;;;;;;;;;;;;;;;;;;5057024;28;19920;-44
2022/05/25 09:41:19;;;;;;;;;;;;;;;;;;5069745;28;19997;-46
2022/05/25 09:43:45;;;;;;;;;;;;;;;;;;5069402;28;19970;-44
2022/05/25 09:46:11;;;;;;;;;;;;;;;;;;5070481;28;19908;-44
2022/05/25 09:48:37;;;;;;;;;;;;;;;;;;5069268;28;19908;-45
2022/05/25 09:51:03;;;;;;;;;;;;;;;;;;5068465;28;20421;-43
2022/05/25 09:53:29;;;;;;;;;;;;;;;;;;5069049;28;19913;-44
2022/05/25 09:55:55;;;;;;;;;;;;;;;;;;5068657;28;19904;-43
2022/05/25 09:58:20;;;;;;;;;;;;;;;;;;5069002;28;19909;-43
2022/05/25 10:00:47;;;;;;;;;;;;;;;;;;5069196;28;19965;-43
2022/05/25 10:03:13;;;;;;;;;;;;;;;;;;5069710;28;19908;-44
2022/05/25 10:05:40;;;;;;;;;;;;;;;;;;5067894;28;20355;-44
2022/05/25 10:08:08;;;;;;;;;;;;;;;;;;5068895;28;19978;-43
2022/05/25 10:10:34;;;;;;;;;;;;;;;;;;5061024;28;19912;-44
2022/05/25 10:13:00;;;;;;;;;;;;;;;;;;5048176;28;19920;-43
2022/05/25 10:15:26;;;;;;;;;;;;;;;;;;5048609;28;19943;-44
2022/05/25 10:17:52;;;;;;;;;;;;;;;;;;5048156;28;19909;-43
2022/05/25 10:20:19;;;;;;;;;;;;;;;;;;5047923;28;19904;-43
2022/05/25 10:22:45;;;;;;;;;;;;;;;;;;5056133;28;20287;-44
2022/05/25 10:25:10;;;;;;;;;;;;;;;;;;5067525;28;19912;-43
2022/05/25 10:27:36;;;;;;;;;;;;;;;;;;5067301;28;19958;-44
2022/05/25 10:38:16;;;;;;;;;;;;;;;;;;5068762;28;20389;-44
2022/05/25 10:40:42;;;;;;;;;;;;;;;;;;5065487;28;20002;-47
2022/05/25 10:43:08;;;;;;;;;;;;;;;;;;5053640;28;19915;-45
2022/05/25 10:45:35;;;;;;;;;;;;;;;;;;5060739;28;19904;-43
2022/05/25 10:48:07;;;;;;;;;;;;;;;;;;5066984;28;19908;-43
2022/05/25 10:50:33;;;;;;;;;;;;;;;;;;5067444;28;19915;-44
2022/05/25 10:52:59;;;;;;;;;;;;;;;;;;5066921;28;19909;-44
2022/05/25 10:55:25;;;;;;;;;;;;;;;;;;5068156;28;19908;-43
2022/05/25 10:57:51;;;;;;;;;;;;;;;;;;5067835;28;19904;-45
2022/05/25 11:00:16;;;;;;;;;;;;;;;;;;5068769;28;20443;-47
2022/05/25 11:02:42;;;;;;;;;;;;;;;;;;5066754;28;19908;-45
2022/05/25 11:05:11;;;;;;;;;;;;;;;;;;5066624;28;19919;-43
2022/05/25 11:07:37;;;;;;;;;;;;;;;;;;5067767;28;20330;-44
2022/05/25 11:10:03;;;;;;;;;;;;;;;;;;5067547;28;19916;-44
2022/05/25 11:12:29;;;;;;;;;;;;;;;;;;5065619;28;19912;-44
2022/05/25 11:14:56;;;;;;;;;;;;;;;;;;5067494;28;19962;-44
2022/05/25 11:17:22;;;;;;;;;;;;;;;;;;5067257;28;19959;-45
2022/05/25 11:19:48;;;;;;;;;;;;;;;;;;5065560;28;20340;-44
2022/05/25 11:22:14;;;;;;;;;;;;;;;;;;5056631;28;19970;-46
2022/05/25 11:24:40;;;;;;;;;;;;;;;;;;5067318;28;19908;-45
2022/05/25 11:27:06;;;;;;;;;;;;;;;;;;5066350;28;19992;-44
2022/05/25 11:29:32;;;;;;;;;;;;;;;;;;5067495;28;19935;-59
2022/05/25 11:32:00;;;;;;;;;;;;;;;;;;5066680;28;19956;-59
2022/05/25 11:34:26;;;;;;;;;;;;;;;;;;5064914;28;19935;-59
2022/05/25 11:36:52;;;;;;;;;;;;;;;;;;5066516;28;19908;-59
2022/05/25 11:39:18;;;;;;;;;;;;;;;;;;5064847;28;19912;-60
2022/05/25 11:41:44;;;;;;;;;;;;;;;;;;5065710;28;19913;-60
2022/05/25 11:44:10;;;;;;;;;;;;;;;;;;5067081;28;19908;-59
2022/05/25 11:46:35;;;;;;;;;;;;;;;;;;5066936;28;19908;-61
2022/05/25 11:49:01;;;;;;;;;;;;;;;;;;5065993;28;19908;-60
2022/05/25 11:51:28;;;;;;;;;;;;;;;;;;5066597;28;19923;-61
2022/05/25 11:53:56;;;;;;;;;;;;;;;;;;5066143;28;19912;-59
2022/05/25 11:56:22;;;;;;;;;;;;;;;;;;5064580;28;19915;-59
2022/05/25 11:58:48;;;;;;;;;;;;;;;;;;5066445;28;19908;-59
2022/05/25 12:01:14;;;;;;;;;;;;;;;;;;5067265;28;19912;-59
2022/05/25 12:03:40;;;;;;;;;;;;;;;;;;5067270;28;19982;-60
2022/05/25 12:06:06;;;;;;;;;;;;;;;;;;5067008;28;19904;-60
2022/05/25 12:08:32;;;;;;;;;;;;;;;;;;5065675;28;19904;-59
2022/05/25 12:10:58;;;;;;;;;;;;;;;;;;5064832;28;19908;-60
2022/05/25 12:13:25;;;;;;;;;;;;;;;;;;5065824;28;19915;-60
2022/05/25 12:15:52;;;;;;;;;;;;;;;;;;5065158;28;19904;-59
2022/05/25 12:18:18;;;;;;;;;;;;;;;;;;5066059;28;19909;-60
2022/05/25 12:20:44;;;;;;;;;;;;;;;;;;5065563;28;19909;-60
2022/05/25 12:23:09;;;;;;;;;;;;;;;;;;5065644;28;19958;-60
2022/05/25 12:25:35;;;;;;;;;;;;;;;;;;5064834;28;20031;-59
2022/05/25 12:28:01;;;;;;;;;;;;;;;;;;5064999;28;19936;-60
2022/05/25 12:30:28;;;;;;;;;;;;;;;;;;5065300;28;19912;-61
2022/05/25 12:32:54;;;;;;;;;;;;;;;;;;5065050;28;19904;-60
2022/05/25 12:35:22;;;;;;;;;;;;;;;;;;5065087;28;20100;-60
2022/05/25 12:37:51;;;;;;;;;;;;;;;;;;5065087;28;20271;-60
2022/05/25 12:40:17;;;;;;;;;;;;;;;;;;5065904;28;20339;-60
2022/05/25 12:42:44;;;;;;;;;;;;;;;;;;5065351;28;19928;-60
2022/05/25 12:50:40;;;;;;;;;;;;;;;;;;5068931;28;19929;-59
2022/05/25 12:53:06;;;;;;;;;;;;;;;;;;5068974;28;19909;-59
2022/05/25 12:55:32;;;;;;;;;;;;;;;;;;5068554;28;20385;-60
2022/05/25 12:57:58;;;;;;;;;;;;;;;;;;5068606;28;19904;-60
2022/05/25 13:00:24;;;;;;;;;;;;;;;;;;5068836;28;19911;-60
2022/05/25 13:02:50;;;;;;;;;;;;;;;;;;5068430;28;19948;-60
2022/05/25 13:05:18;;;;;;;;;;;;;;;;;;5069465;28;20423;-60
2022/05/25 13:07:46;;;;;;;;;;;;;;;;;;5069083;28;19908;-60
2022/05/25 13:10:12;;;;;;;;;;;;;;;;;;5068799;28;19913;-60
2022/05/25 13:12:38;;;;;;;;;;;;;;;;;;5068991;28;20334;-60
2022/05/25 13:15:05;;;;;;;;;;;;;;;;;;5068214;28;19904;-60
2022/05/25 13:17:31;;;;;;;;;;;;;;;;;;5068516;28;19951;-60
2022/05/25 13:19:57;;;;;;;;;;;;;;;;;;5068414;28;19939;-60
2022/05/25 13:22:24;;;;;;;;;;;;;;;;;;5068557;28;19908;-60
2022/05/25 13:24:50;;;;;;;;;;;;;;;;;;5068024;28;19931;-60
2022/05/25 13:27:16;;;;;;;;;;;;;;;;;;5069102;28;20409;-60
2022/05/25 13:29:42;;;;;;;;;;;;;;;;;;5067889;28;20022;-61
2022/05/25 13:32:08;;;;;;;;;;;;;;;;;;5068199;28;19999;-60
2022/05/25 13:34:34;;;;;;;;;;;;;;;;;;5068308;28;20026;-59
2022/05/25 13:37:01;;;;;;;;;;;;;;;;;;5068137;28;20485;-60
2022/05/25 13:39:27;;;;;;;;;;;;;;;;;;5068315;28;19931;-60
2022/05/25 13:41:54;;;;;;;;;;;;;;;;;;5067615;28;20375;-60
2022/05/25 13:44:20;;;;;;;;;;;;;;;;;;5066807;28;20322;-60
2022/05/25 13:46:46;;;;;;;;;;;;;;;;;;5068392;28;19901;-60
2022/05/25 13:49:12;;;;;;;;;;;;;;;;;;5068108;28;19932;-60
2022/05/25 13:51:39;;;;;;;;;;;;;;;;;;5067848;28;19919;-60
2022/05/25 13:54:05;;;;;;;;;;;;;;;;;;5067737;28;19912;-60
2022/05/25 13:56:32;;;;;;;;;;;;;;;;;;5067486;28;20136;-59
2022/05/25 13:58:58;;;;;;;;;;;;;;;;;;5067637;28;19957;-60
2022/05/25 14:01:24;;;;;;;;;;;;;;;;;;5067902;28;20294;-59
2022/05/25 14:03:50;;;;;;;;;;;;;;;;;;5067612;28;19970;-60
2022/05/25 14:06:16;;;;;;;;;;;;;;;;;;5068295;28;19904;-60
2022/05/25 14:11:26;;;;;;;;;;;;;;;;;;5067244;28;19915;-60
2022/05/25 14:13:53;;;;;;;;;;;;;;;;;;5067462;28;19999;-60
2022/05/25 14:16:20;;;;;;;;;;;;;;;;;;5067496;28;19909;-60
2022/05/25 14:18:46;;;;;;;;;;;;;;;;;;5067899;28;19911;-60
2022/05/25 14:21:12;;;;;;;;;;;;;;;;;;5067516;28;20394;-60
2022/05/25 14:23:38;;;;;;;;;;;;;;;;;;5067562;28;19908;-60
2022/05/25 14:26:07;;;;;;;;;;;;;;;;;;5066855;28;20386;-60
2022/05/25 14:28:33;;;;;;;;;;;;;;;;;;5067471;28;20409;-61
2022/05/25 14:30:59;;;;;;;;;;;;;;;;;;5066903;28;19912;-60
2022/05/25 14:33:26;;;;;;;;;;;;;;;;;;5067595;28;19904;-60
2022/05/25 14:35:52;;;;;;;;;;;;;;;;;;5066983;28;20372;-60
2022/05/25 14:38:19;;;;;;;;;;;;;;;;;;5067264;28;20375;-60
2022/05/25 14:40:45;;;;;;;;;;;;;;;;;;5067246;28;19979;-60
2022/05/25 14:43:11;;;;;;;;;;;;;;;;;;5067101;28;20003;-60
2022/05/25 14:45:37;;;;;;;;;;;;;;;;;;5066958;28;20257;-60
2022/05/25 14:48:05;;;;;;;;;;;;;;;;;;5066681;28;19916;-60
2022/05/25 14:50:31;;;;;;;;;;;;;;;;;;5066307;28;19908;-60
2022/05/25 14:52:57;;;;;;;;;;;;;;;;;;5064155;28;19909;-60
2022/05/25 14:55:23;;;;;;;;;;;;;;;;;;5067983;28;19923;-60
2022/05/25 14:57:50;;;;;;;;;;;;;;;;;;5065575;28;19908;-60
2022/05/25 15:00:16;;;;;;;;;;;;;;;;;;5067080;28;19946;-60
2022/05/25 15:02:42;;;;;;;;;;;;;;;;;;5067934;28;20311;-60
2022/05/25 15:05:08;;;;;;;;;;;;;;;;;;5067869;28;19908;-60
2022/05/25 15:07:34;;;;;;;;;;;;;;;;;;5065836;28;19908;-59
2022/05/25 15:10:00;;;;;;;;;;;;;;;;;;5067497;28;19951;-60
2022/05/25 15:12:30;;;;;;;;;;;;;;;;;;5067774;28;19987;-60
2022/05/25 15:20:25;;;;;;;;;;;;;;;;;;5050049;28;19931;-60
2022/05/25 15:22:51;;;;;;;;;;;;;;;;;;5066740;28;19912;-60
2022/05/25 15:25:18;;;;;;;;;;;;;;;;;;5068204;28;19958;-60
2022/05/25 15:27:46;;;;;;;;;;;;;;;;;;5067833;28;19908;-60
2022/05/25 15:30:13;;;;;;;;;;;;;;;;;;5067230;28;19955;-60
2022/05/25 15:32:39;;;;;;;;;;;;;;;;;;5067518;28;19983;-60
2022/05/25 15:35:04;;;;;;;;;;;;;;;;;;5067372;28;19923;-59
2022/05/25 15:37:33;;;;;;;;;;;;;;;;;;5067528;28;19924;-60
2022/05/25 15:39:59;;;;;;;;;;;;;;;;;;5067049;28;19915;-59
2022/05/25 15:42:25;;;;;;;;;;;;;;;;;;5067338;28;19904;-59
2022/05/25 15:44:51;;;;;;;;;;;;;;;;;;5067044;28;19992;-60
2022/05/25 15:47:17;;;;;;;;;;;;;;;;;;5067064;28;19932;-60
2022/05/25 15:49:43;;;;;;;;;;;;;;;;;;5067086;28;19904;-60
2022/05/25 15:52:09;;;;;;;;;;;;;;;;;;5067211;28;19919;-60
2022/05/25 15:54:35;;;;;;;;;;;;;;;;;;5066775;28;20017;-60
2022/05/25 15:57:02;;;;;;;;;;;;;;;;;;5065163;28;20030;-60
2022/05/25 15:59:27;;;;;;;;;;;;;;;;;;5066114;28;20322;-60
2022/05/25 16:01:54;;;;;;;;;;;;;;;;;;5064937;28;19916;-60
2022/05/25 16:04:20;;;;;;;;;;;;;;;;;;5066293;28;19945;-60
2022/05/25 16:06:47;;;;;;;;;;;;;;;;;;5065844;28;20004;-60
2022/05/25 16:09:19;;;;;;;;;;;;;;;;;;5055633;28;19912;-59
2022/05/25 16:11:45;;;;;;;;;;;;;;;;;;5066927;28;19951;-59
2022/05/25 16:14:11;;;;;;;;;;;;;;;;;;5057309;28;20014;-59
2022/05/25 16:16:37;;;;;;;;;;;;;;;;;;5046528;28;19905;-59
2022/05/25 16:19:03;;;;;;;;;;;;;;;;;;5050595;28;20005;-59
2022/05/25 16:21:31;;;;;;;;;;;;;;;;;;5066929;28;19994;-59
2022/05/25 16:23:58;;;;;;;;;;;;;;;;;;5066364;28;20046;-58
2022/05/25 16:26:25;;;;;;;;;;;;;;;;;;5066466;28;20003;-59
2022/05/25 16:28:51;;;;;;;;;;;;;;;;;;5066265;28;20480;-59
2022/05/25 16:31:17;;;;;;;;;;;;;;;;;;5067008;28;19912;-59
2022/05/25 16:33:43;;;;;;;;;;;;;;;;;;5067039;28;19974;-58
2022/05/25 16:36:09;;;;;;;;;;;;;;;;;;5066628;28;19952;-59
2022/05/25 16:38:35;;;;;;;;;;;;;;;;;;5082181;28;19904;-59
2022/05/25 16:41:01;;;;;;;;;;;;;;;;;;5064638;28;19915;-58
2022/05/25 16:43:27;;;;;;;;;;;;;;;;;;5066226;28;19908;-59
2022/05/25 16:45:53;;;;;;;;;;;;;;;;;;5066408;28;20295;-59
2022/05/25 16:48:20;;;;;;;;;;;;;;;;;;5066409;28;19911;-58
2022/05/25 16:50:46;;;;;;;;;;;;;;;;;;5066480;28;19912;-58
2022/05/25 16:53:12;;;;;;;;;;;;;;;;;;5065840;28;20362;-58
2022/05/25 16:55:38;;;;;;;;;;;;;;;;;;5065868;28;19935;-58
2022/05/25 16:58:04;;;;;;;;;;;;;;;;;;5065994;28;20484;-58
2022/05/25 17:00:30;;;;;;;;;;;;;;;;;;5065621;28;19990;-59
2022/05/25 17:02:56;;;;;;;;;;;;;;;;;;5066707;28;19913;-58
2022/05/25 17:05:22;;;;;;;;;;;;;;;;;;5065532;28;19913;-58
2022/05/25 17:07:48;;;;;;;;;;;;;;;;;;5065905;28;19914;-58
2022/05/25 17:10:14;;;;;;;;;;;;;;;;;;5066031;28;20006;-58
2022/05/25 17:12:43;;;;;;;;;;;;;;;;;;5065594;28;20031;-58
2022/05/25 17:15:09;;;;;;;;;;;;;;;;;;5066281;28;19918;-58
2022/05/25 17:17:35;;;;;;;;;;;;;;;;;;5066100;28;20342;-58